Time;durP1;ratioP1;P1;durP2;ratioP2;P2;SDS_P1;SDS_P2;PMS_P1;PMS_P2;Temp;Humidity;BMP_temperature;BMP_pressure;BME280_temperature;BME280_humidity;BME280_pressure;Samples;Min_cycle;Max_cycle;Signal;HPM_P1;HPM_P2
2021/01/31 00:01:48;;;;;;;27.97;15.53;;;-10.70;99.90;;;;;;5073158;28;20862;-89
2021/01/31 00:04:21;;;;;;;33.47;16.17;;;-10.90;99.90;;;;;;5072594;28;20406;-88
2021/01/31 00:06:55;;;;;;;31.10;15.30;;;-10.80;99.90;;;;;;5073953;28;20186;-88
2021/01/31 00:09:31;;;;;;;31.50;13.37;;;-10.70;99.90;;;;;;5072518;28;20426;-87
2021/01/31 00:11:56;;;;;;;31.83;15.33;;;-10.60;99.90;;;;;;5072373;28;20280;-87
2021/01/31 00:14:26;;;;;;;45.80;16.13;;;-10.40;99.90;;;;;;5072615;28;20441;-87
2021/01/31 00:16:56;;;;;;;30.97;15.30;;;-10.20;99.90;;;;;;5071972;28;20183;-87
2021/01/31 00:19:26;;;;;;;39.40;17.33;;;-10.00;99.90;;;;;;5073759;28;20708;-87
2021/01/31 00:22:02;;;;;;;52.63;19.70;;;-9.90;99.90;;;;;;5073341;28;20189;-87
2021/01/31 00:24:33;;;;;;;51.83;19.47;;;-9.80;99.90;;;;;;5073356;28;20218;-87
2021/01/31 00:27:01;;;;;;;52.47;21.23;;;-9.60;99.90;;;;;;5073841;28;20212;-87
2021/01/31 00:29:31;;;;;;;70.30;20.40;;;-9.40;99.90;;;;;;5073323;28;20179;-87
2021/01/31 00:32:01;;;;;;;53.67;20.70;;;-9.30;99.90;;;;;;5072312;28;20191;-87
2021/01/31 00:34:38;;;;;;;52.17;19.60;;;-9.20;99.90;;;;;;5072157;28;20334;-87
2021/01/31 00:37:11;;;;;;;164.20;27.73;;;-9.10;99.90;;;;;;5073405;28;20653;-87
2021/01/31 00:39:44;;;;;;;56.97;23.83;;;-8.90;99.90;;;;;;5072034;28;20185;-87
2021/01/31 00:42:16;;;;;;;48.07;23.07;;;-8.90;99.90;;;;;;5073485;28;20569;-87
2021/01/31 00:44:55;;;;;;;47.47;22.83;;;-9.00;99.90;;;;;;5073269;28;20565;-86
2021/01/31 00:47:22;;;;;;;41.93;22.20;;;-9.00;99.90;;;;;;5072236;28;20162;-87
2021/01/31 00:49:56;;;;;;;52.93;20.60;;;-9.10;99.90;;;;;;5073305;28;20649;-86
2021/01/31 00:52:28;;;;;;;48.20;20.03;;;-9.00;99.90;;;;;;5073105;28;20195;-86
2021/01/31 00:55:00;;;;;;;39.77;18.47;;;-8.90;99.90;;;;;;5073069;28;20671;-87
2021/01/31 00:57:31;;;;;;;109.90;21.33;;;-8.80;99.90;;;;;;5071791;28;20261;-87
2021/01/31 01:00:18;;;;;;;63.90;18.40;;;-8.70;99.90;;;;;;5071824;28;20182;-87
2021/01/31 01:02:53;;;;;;;102.80;19.70;;;-8.60;99.90;;;;;;5071766;28;20602;-87
2021/01/31 01:05:31;;;;;;;54.63;19.10;;;-8.50;99.90;;;;;;5071587;28;20191;-87
2021/01/31 01:08:02;;;;;;;68.80;19.63;;;-8.50;99.90;;;;;;5071728;28;20186;-87
2021/01/31 01:10:39;;;;;;;49.90;18.43;;;-8.40;99.90;;;;;;5071820;28;20265;-87
2021/01/31 01:13:15;;;;;;;54.13;18.83;;;-8.40;99.90;;;;;;5072969;28;20224;-87
2021/01/31 01:15:50;;;;;;;35.30;18.03;;;-8.40;99.90;;;;;;5072271;28;20194;-87
2021/01/31 01:18:21;;;;;;;53.47;22.83;;;-8.40;99.90;;;;;;5072146;28;20179;-87
2021/01/31 01:20:56;;;;;;;46.33;18.73;;;-8.50;99.90;;;;;;5071731;28;20225;-87
2021/01/31 01:23:28;;;;;;;56.17;17.90;;;-8.50;99.90;;;;;;5071524;28;20215;-87
2021/01/31 01:26:07;;;;;;;48.50;16.67;;;-8.40;99.90;;;;;;5071672;28;20203;-87
2021/01/31 01:28:41;;;;;;;65.83;17.43;;;-8.50;99.90;;;;;;5075455;28;20636;-87
2021/01/31 01:31:14;;;;;;;43.40;16.53;;;-8.60;99.90;;;;;;5075855;28;20339;-87
2021/01/31 01:33:44;;;;;;;85.87;19.73;;;-8.60;99.90;;;;;;5075206;28;20176;-87
2021/01/31 01:36:15;;;;;;;65.33;16.27;;;-8.60;99.90;;;;;;5075025;28;20188;-87
2021/01/31 01:38:43;;;;;;;53.20;17.03;;;-8.50;99.90;;;;;;5074991;28;20172;-88
2021/01/31 01:41:17;;;;;;;42.27;17.80;;;-8.50;99.90;;;;;;5074905;28;20635;-87
2021/01/31 01:43:51;;;;;;;63.17;18.63;;;-8.50;99.90;;;;;;5075382;28;20613;-87
2021/01/31 01:46:24;;;;;;;62.40;19.00;;;-8.40;99.90;;;;;;5075179;28;20705;-87
2021/01/31 01:49:08;;;;;;;40.97;18.13;;;-8.40;99.90;;;;;;5074769;28;20171;-88
2021/01/31 01:51:54;;;;;;;36.30;17.63;;;-8.40;99.90;;;;;;5075048;28;20171;-88
2021/01/31 01:54:36;;;;;;;50.20;17.97;;;-8.40;99.90;;;;;;5075578;28;20202;-87
2021/01/31 01:57:12;;;;;;;60.20;16.37;;;-8.40;99.90;;;;;;5075234;28;20171;-87
2021/01/31 01:59:46;;;;;;;69.00;20.13;;;-8.40;99.90;;;;;;5074603;28;20182;-87
2021/01/31 02:02:22;;;;;;;67.57;18.27;;;-8.30;99.90;;;;;;5074720;28;20194;-87
2021/01/31 02:04:55;;;;;;;50.20;17.00;;;-8.30;99.90;;;;;;5074839;28;20198;-87
2021/01/31 02:07:31;;;;;;;59.47;18.63;;;-8.30;99.90;;;;;;5075273;28;20174;-88
2021/01/31 02:10:07;;;;;;;32.70;18.10;;;-8.20;99.90;;;;;;5074599;28;20221;-87
2021/01/31 02:12:33;;;;;;;30.87;17.13;;;-8.10;99.90;;;;;;5074649;28;20595;-87
2021/01/31 02:15:07;;;;;;;58.60;17.40;;;-8.20;99.90;;;;;;5074475;28;20195;-87
2021/01/31 02:18:14;;;;;;;55.80;18.83;;;-8.20;99.90;;;;;;5075770;28;20171;-87
2021/01/31 02:21:17;;;;;;;60.70;19.43;;;-8.40;99.90;;;;;;5074761;28;20178;-87
2021/01/31 02:24:22;;;;;;;42.73;17.37;;;-8.50;99.90;;;;;;5074233;28;20179;-87
2021/01/31 02:27:10;;;;;;;54.83;18.83;;;-8.60;99.90;;;;;;5074454;28;20643;-87
2021/01/31 02:29:47;;;;;;;59.67;16.67;;;-8.60;99.90;;;;;;5075679;28;20175;-88
2021/01/31 02:32:38;;;;;;;68.17;16.80;;;-8.50;99.90;;;;;;5074214;28;20550;-87
2021/01/31 02:35:11;;;;;;;63.30;18.13;;;-8.40;99.90;;;;;;5073928;28;20195;-87
2021/01/31 02:37:51;;;;;;;46.37;15.27;;;-8.30;99.90;;;;;;5075247;28;20221;-87
2021/01/31 02:40:56;;;;;;;51.77;16.80;;;-8.30;99.90;;;;;;5075081;28;20179;-88
2021/01/31 02:43:44;;;;;;;53.33;18.03;;;-8.30;99.90;;;;;;5066426;28;20218;-87
2021/01/31 02:46:23;;;;;;;40.93;15.93;;;-8.20;99.90;;;;;;5074966;28;20195;-88
2021/01/31 02:49:04;;;;;;;98.30;21.10;;;-8.20;99.90;;;;;;5075076;28;20171;-88
2021/01/31 02:51:51;;;;;;;37.87;17.67;;;-8.20;99.90;;;;;;5073558;28;20176;-87
2021/01/31 02:54:29;;;;;;;63.73;18.63;;;-8.10;99.90;;;;;;5073652;28;20167;-87
2021/01/31 02:57:01;;;;;;;63.60;19.97;;;-8.10;99.90;;;;;;5074893;28;20156;-87
2021/01/31 02:59:50;;;;;;;71.70;21.00;;;-8.40;99.90;;;;;;5073726;28;20163;-87
2021/01/31 03:02:31;;;;;;;36.50;20.53;;;-8.60;99.90;;;;;;5074035;28;20282;-88
2021/01/31 03:05:16;;;;;;;38.60;20.13;;;-8.80;99.90;;;;;;5074740;28;20252;-87
2021/01/31 03:08:01;;;;;;;33.70;18.60;;;-8.90;99.90;;;;;;5073461;28;20580;-87
2021/01/31 03:10:51;;;;;;;41.10;15.27;;;-8.90;99.90;;;;;;5074562;28;20249;-88
2021/01/31 03:13:45;;;;;;;34.10;18.57;;;-8.90;99.90;;;;;;5073396;28;20235;-87
2021/01/31 03:16:35;;;;;;;32.60;18.37;;;-8.70;99.90;;;;;;5073309;28;20191;-87
2021/01/31 03:19:20;;;;;;;28.27;16.23;;;-8.60;99.90;;;;;;5073129;28;20175;-87
2021/01/31 03:22:01;;;;;;;30.50;16.10;;;-8.70;99.90;;;;;;5074405;28;20187;-87
2021/01/31 03:24:44;;;;;;;37.20;19.70;;;-8.80;99.90;;;;;;5074153;28;20251;-87
2021/01/31 03:27:34;;;;;;;45.60;21.20;;;-8.90;99.90;;;;;;5074830;28;20197;-87
2021/01/31 03:30:08;;;;;;;41.53;21.23;;;-9.10;99.90;;;;;;5073801;28;20163;-87
2021/01/31 03:33:04;;;;;;;36.10;19.97;;;-9.20;99.90;;;;;;5073279;28;20172;-87
2021/01/31 03:35:46;;;;;;;29.47;15.97;;;-9.10;99.90;;;;;;5071806;28;20294;-87
2021/01/31 03:38:38;;;;;;;29.17;16.37;;;-9.00;99.90;;;;;;5074219;28;20674;-87
2021/01/31 03:41:21;;;;;;;25.53;15.77;;;-8.90;99.90;;;;;;5072829;28;20179;-87
2021/01/31 03:43:51;;;;;;;27.13;15.63;;;-8.80;99.90;;;;;;5072902;28;20171;-87
2021/01/31 03:46:38;;;;;;;26.20;15.73;;;-8.70;99.90;;;;;;5074221;28;20195;-87
2021/01/31 03:49:27;;;;;;;29.60;15.97;;;-8.50;99.90;;;;;;5072627;28;20285;-88
2021/01/31 03:52:01;;;;;;;29.53;15.97;;;-8.50;99.90;;;;;;5073445;28;20193;-88
2021/01/31 03:54:38;;;;;;;32.50;17.33;;;-8.30;99.90;;;;;;5073787;28;20202;-88
2021/01/31 03:57:17;;;;;;;25.67;15.13;;;-8.20;99.90;;;;;;5072653;28;20270;-87
2021/01/31 03:59:55;;;;;;;28.87;15.90;;;-8.10;99.90;;;;;;5072448;28;20179;-87
2021/01/31 04:02:31;;;;;;;25.70;13.40;;;-8.10;99.90;;;;;;5072766;28;20213;-87
2021/01/31 04:05:01;;;;;;;25.47;13.77;;;-8.00;99.90;;;;;;5072360;28;20256;-88
2021/01/31 04:07:46;;;;;;;24.57;14.07;;;-8.00;99.90;;;;;;5072665;28;20172;-88
2021/01/31 04:10:20;;;;;;;32.40;14.73;;;-8.00;99.90;;;;;;5072762;28;20171;-88
2021/01/31 04:12:58;;;;;;;23.27;14.20;;;-8.00;99.90;;;;;;5073875;28;20186;-87
2021/01/31 04:15:39;;;;;;;26.87;16.23;;;-7.90;99.90;;;;;;5073830;28;20225;-87
2021/01/31 04:18:15;;;;;;;26.13;16.33;;;-7.90;99.90;;;;;;5073574;28;20167;-87
2021/01/31 04:20:50;;;;;;;24.63;13.87;;;-7.90;99.90;;;;;;5073459;28;20544;-87
2021/01/31 04:23:18;;;;;;;21.73;13.60;;;-7.90;99.90;;;;;;5072142;28;20206;-88
2021/01/31 04:25:51;;;;;;;27.37;16.33;;;-7.90;99.90;;;;;;5072217;28;20207;-87
2021/01/31 04:28:26;;;;;;;28.80;15.40;;;-7.90;99.90;;;;;;5072155;28;20306;-87
2021/01/31 04:30:56;;;;;;;29.33;16.93;;;-7.90;99.90;;;;;;5073423;28;20209;-87
2021/01/31 04:33:31;;;;;;;28.87;15.93;;;-7.90;99.90;;;;;;5072250;28;20185;-88
2021/01/31 04:36:01;;;;;;;31.97;16.93;;;-7.80;99.90;;;;;;5072002;28;20366;-87
2021/01/31 04:38:32;;;;;;;31.33;15.93;;;-7.80;99.90;;;;;;5071922;28;20202;-87
2021/01/31 04:41:01;;;;;;;28.03;17.57;;;-7.80;99.90;;;;;;5071993;28;20189;-88
2021/01/31 04:43:33;;;;;;;25.17;15.13;;;-7.80;99.90;;;;;;5072388;28;20199;-87
2021/01/31 04:46:10;;;;;;;23.30;14.93;;;-7.80;99.90;;;;;;5071973;28;20685;-87
2021/01/31 04:49:15;;;;;;;26.70;15.70;;;-7.70;99.90;;;;;;5072505;28;20194;-88
2021/01/31 04:52:06;;;;;;;23.83;14.80;;;-7.70;99.90;;;;;;5071962;28;20202;-88
2021/01/31 04:55:04;;;;;;;31.70;16.63;;;-7.80;99.90;;;;;;5073229;28;20187;-88
2021/01/31 04:57:51;;;;;;;29.20;15.90;;;-7.90;99.90;;;;;;5071893;28;20167;-88
2021/01/31 05:00:23;;;;;;;29.67;16.80;;;-7.80;99.90;;;;;;5073194;28;20171;-87
2021/01/31 05:03:00;;;;;;;24.30;14.37;;;-7.70;99.90;;;;;;5075107;28;20638;-87
2021/01/31 05:05:38;;;;;;;23.53;15.00;;;-7.80;99.90;;;;;;5075794;28;20227;-87
2021/01/31 05:08:21;;;;;;;26.83;15.40;;;-7.90;99.90;;;;;;5075885;28;20186;-87
2021/01/31 05:10:52;;;;;;;32.33;17.40;;;-7.90;99.90;;;;;;5077014;28;20171;-88
2021/01/31 05:13:35;;;;;;;29.30;16.53;;;-8.10;99.90;;;;;;5075575;28;20653;-87
2021/01/31 05:16:14;;;;;;;31.50;17.90;;;-8.30;99.90;;;;;;5075651;28;20230;-87
2021/01/31 05:18:56;;;;;;;27.83;17.97;;;-8.20;99.90;;;;;;5075397;28;20182;-87
2021/01/31 05:21:29;;;;;;;28.57;16.77;;;-8.00;99.90;;;;;;5075736;28;20179;-88
2021/01/31 05:24:14;;;;;;;26.90;16.90;;;-7.90;99.90;;;;;;5075339;28;20179;-87
2021/01/31 05:26:47;;;;;;;27.53;16.30;;;-7.80;99.90;;;;;;5076475;28;20190;-87
2021/01/31 05:29:22;;;;;;;32.53;16.47;;;-7.70;99.90;;;;;;5075445;28;20250;-87
2021/01/31 05:32:11;;;;;;;26.63;16.53;;;-7.70;99.90;;;;;;5075237;28;20269;-87
2021/01/31 05:34:47;;;;;;;31.17;16.70;;;-7.60;99.90;;;;;;5075469;28;20235;-87
2021/01/31 05:37:53;;;;;;;28.60;17.00;;;-7.60;99.90;;;;;;5076440;28;20171;-87
2021/01/31 05:40:44;;;;;;;24.93;15.47;;;-7.50;99.90;;;;;;5053759;28;20183;-87
2021/01/31 05:43:21;;;;;;;25.13;15.13;;;-7.40;99.90;;;;;;5076246;28;20184;-87
2021/01/31 05:45:54;;;;;;;24.67;14.50;;;-7.50;99.90;;;;;;5074985;28;20191;-87
2021/01/31 05:48:38;;;;;;;30.67;17.27;;;-7.50;99.90;;;;;;5074827;28;20178;-87
2021/01/31 05:51:19;;;;;;;29.30;18.53;;;-7.60;99.90;;;;;;5075349;28;20552;-88
2021/01/31 05:53:53;;;;;;;29.90;17.73;;;-7.60;99.90;;;;;;5076104;28;20647;-87
2021/01/31 05:56:28;;;;;;;31.13;17.60;;;-7.60;99.90;;;;;;5074680;28;20191;-88
2021/01/31 05:59:04;;;;;;;29.87;18.63;;;-7.50;99.90;;;;;;5075016;28;20171;-88
2021/01/31 06:01:50;;;;;;;30.80;18.60;;;-7.40;99.90;;;;;;5075498;28;20164;-88
2021/01/31 06:04:21;;;;;;;32.10;18.80;;;-7.30;99.90;;;;;;5076229;28;20159;-87
2021/01/31 06:06:56;;;;;;;31.03;18.63;;;-7.10;99.90;;;;;;5074673;28;20254;-88
2021/01/31 06:09:50;;;;;;;32.30;20.37;;;-7.10;99.90;;;;;;5075861;28;20166;-88
2021/01/31 06:12:26;;;;;;;30.73;16.47;;;-6.90;99.90;;;;;;5076062;28;20164;-88
2021/01/31 06:15:09;;;;;;;27.80;16.47;;;-6.70;99.90;;;;;;5075283;28;20267;-87
2021/01/31 06:17:43;;;;;;;36.50;18.43;;;-6.60;99.90;;;;;;5074976;28;20175;-87
2021/01/31 06:20:15;;;;;;;32.67;20.83;;;-6.50;99.90;;;;;;5074402;28;20720;-87
2021/01/31 06:22:56;;;;;;;34.50;19.37;;;-6.50;99.90;;;;;;5075522;28;20269;-88
2021/01/31 06:25:40;;;;;;;37.43;20.80;;;-6.50;99.90;;;;;;5074111;28;20210;-87
2021/01/31 06:28:16;;;;;;;27.77;16.40;;;-6.50;99.90;;;;;;5075551;28;20168;-87
2021/01/31 06:31:05;;;;;;;32.77;19.53;;;-6.40;99.90;;;;;;5074070;28;20204;-87
2021/01/31 06:33:41;;;;;;;30.20;19.20;;;-6.30;99.90;;;;;;5075480;28;20172;-87
2021/01/31 06:36:31;;;;;;;24.57;13.40;;;-6.20;99.90;;;;;;5074033;28;20579;-87
2021/01/31 06:39:14;;;;;;;34.30;18.70;;;-6.10;99.90;;;;;;5074021;28;20171;-87
2021/01/31 06:41:57;;;;;;;33.53;18.80;;;-6.00;99.90;;;;;;5074023;28;20274;-87
2021/01/31 06:44:34;;;;;;;35.67;17.67;;;-5.90;99.90;;;;;;5073800;28;20254;-87
2021/01/31 06:47:23;;;;;;;15.37;9.17;;;-5.80;99.90;;;;;;5073858;28;20583;-87
2021/01/31 06:50:08;;;;;;;28.37;15.43;;;-5.70;99.90;;;;;;5075011;28;20541;-87
2021/01/31 06:52:47;;;;;;;34.43;18.63;;;-5.60;99.90;;;;;;5073915;28;20266;-87
2021/01/31 06:55:21;;;;;;;31.83;16.47;;;-5.50;99.90;;;;;;5075350;28;20621;-87
2021/01/31 06:58:09;;;;;;;31.30;16.47;;;-5.50;99.90;;;;;;5075329;28;20670;-87
2021/01/31 07:01:05;;;;;;;31.73;18.63;;;-5.30;99.90;;;;;;5073594;28;20715;-87
2021/01/31 07:03:58;;;;;;;43.57;20.33;;;-5.30;99.90;;;;;;5074344;28;20203;-87
2021/01/31 07:06:59;;;;;;;35.77;19.87;;;-5.20;99.90;;;;;;5073583;28;20189;-87
2021/01/31 07:09:51;;;;;;;25.90;15.03;;;-5.30;99.90;;;;;;5073570;28;20164;-87
2021/01/31 07:12:31;;;;;;;35.87;19.57;;;-5.20;99.90;;;;;;5073290;28;20583;-87
2021/01/31 07:15:17;;;;;;;24.90;12.40;;;-5.20;99.90;;;;;;5074634;28;20198;-87
2021/01/31 07:18:05;;;;;;;34.90;19.57;;;-5.30;99.90;;;;;;5074468;28;20264;-87
2021/01/31 07:20:43;;;;;;;38.67;21.47;;;-5.20;99.90;;;;;;5074322;28;20164;-87
2021/01/31 07:23:26;;;;;;;41.40;20.50;;;-5.20;99.90;;;;;;5073051;28;20204;-87
2021/01/31 07:26:01;;;;;;;33.07;18.27;;;-5.20;99.90;;;;;;5072310;28;20207;-87
2021/01/31 07:28:36;;;;;;;40.20;21.63;;;-5.30;99.90;;;;;;5072984;28;20267;-87
2021/01/31 07:31:15;;;;;;;50.17;21.83;;;-5.20;99.90;;;;;;5074150;28;20175;-87
2021/01/31 07:34:01;;;;;;;43.57;23.00;;;-5.20;99.90;;;;;;5074081;28;20206;-87
2021/01/31 07:36:45;;;;;;;38.63;20.70;;;-5.20;99.90;;;;;;5072781;28;20203;-87
2021/01/31 07:39:27;;;;;;;34.17;18.37;;;-5.20;99.90;;;;;;5074000;28;20168;-87
2021/01/31 07:41:57;;;;;;;40.97;21.87;;;-5.10;99.90;;;;;;5072785;28;20242;-87
2021/01/31 07:44:36;;;;;;;44.53;21.60;;;-5.20;99.90;;;;;;5072517;28;20251;-87
2021/01/31 07:47:09;;;;;;;41.70;22.90;;;-5.10;99.90;;;;;;5073142;28;20174;-87
2021/01/31 07:49:59;;;;;;;42.57;22.23;;;-5.10;99.90;;;;;;5073925;28;20207;-88
2021/01/31 07:52:49;;;;;;;39.57;19.40;;;-5.20;99.90;;;;;;5072403;28;20176;-87
2021/01/31 07:55:40;;;;;;;33.20;16.37;;;-5.10;99.90;;;;;;5072802;28;20196;-87
2021/01/31 07:58:31;;;;;;;40.07;21.07;;;-5.10;99.90;;;;;;5073693;28;20165;-87
2021/01/31 08:01:01;;;;;;;40.63;20.03;;;-5.10;99.90;;;;;;5072476;28;20180;-88
2021/01/31 08:03:39;;;;;;;38.13;19.27;;;-5.00;99.90;;;;;;5073771;28;20632;-87
2021/01/31 08:06:39;;;;;;;41.63;20.67;;;-5.10;99.90;;;;;;5073476;28;20221;-88
2021/01/31 08:09:32;;;;;;;34.67;17.70;;;-5.00;99.90;;;;;;5073486;28;20226;-87
2021/01/31 08:12:06;;;;;;;35.20;19.40;;;-5.00;99.90;;;;;;5072164;28;20201;-88
2021/01/31 08:15:03;;;;;;;37.80;19.07;;;-4.90;99.90;;;;;;5073337;28;20196;-87
2021/01/31 08:18:11;;;;;;;38.13;19.97;;;-4.90;99.90;;;;;;5073585;28;20170;-87
2021/01/31 08:20:47;;;;;;;28.47;15.90;;;-4.90;99.90;;;;;;5070753;28;20181;-88
2021/01/31 08:23:34;;;;;;;32.17;17.63;;;-4.90;99.90;;;;;;5073342;28;20275;-87
2021/01/31 08:26:10;;;;;;;28.47;15.47;;;-4.80;99.90;;;;;;5158390;22;20240;-88
2021/01/31 08:28:56;;;;;;;41.33;17.63;;;-4.80;99.90;;;;;;5073492;28;20158;-88
2021/01/31 08:31:29;;;;;;;26.60;14.30;;;-4.70;99.90;;;;;;5071998;28;20267;-88
2021/01/31 08:34:08;;;;;;;21.60;11.03;;;-4.70;99.90;;;;;;5073266;28;20172;-88
2021/01/31 08:36:44;;;;;;;38.97;16.53;;;-4.70;99.90;;;;;;5074208;28;20189;-87
2021/01/31 08:39:31;;;;;;;27.33;14.93;;;-4.60;99.90;;;;;;5080231;28;20168;-88
2021/01/31 08:42:14;;;;;;;25.97;14.63;;;-4.60;99.90;;;;;;5079174;28;20192;-88
2021/01/31 08:45:01;;;;;;;27.37;14.40;;;-4.60;99.90;;;;;;5078532;28;20172;-88
2021/01/31 08:47:45;;;;;;;24.57;13.53;;;-4.60;99.90;;;;;;5078531;28;20283;-88
2021/01/31 08:50:15;;;;;;;20.77;10.97;;;-4.50;99.90;;;;;;5078471;28;20168;-88
2021/01/31 08:52:45;;;;;;;18.83;9.97;;;-4.50;99.90;;;;;;5078569;28;20222;-88
2021/01/31 08:55:24;;;;;;;10.13;6.50;;;-4.40;99.90;;;;;;5078509;28;20211;-87
2021/01/31 08:58:01;;;;;;;13.80;8.67;;;-4.50;99.90;;;;;;5079307;28;20177;-87
2021/01/31 09:00:31;;;;;;;14.60;8.20;;;-4.40;99.90;;;;;;5080018;28;20276;-88
2021/01/31 09:03:06;;;;;;;13.83;8.20;;;-4.40;99.90;;;;;;5078308;28;20224;-88
2021/01/31 09:05:39;;;;;;;27.37;14.87;;;-4.40;99.90;;;;;;5079043;28;20192;-87
2021/01/31 09:08:11;;;;;;;19.77;10.07;;;-4.40;99.90;;;;;;5078310;28;20635;-87
2021/01/31 09:10:46;;;;;;;24.50;13.07;;;-4.30;99.90;;;;;;5078342;28;20173;-87
2021/01/31 09:13:29;;;;;;;23.67;12.53;;;-4.30;99.90;;;;;;5078306;28;20266;-87
2021/01/31 09:16:22;;;;;;;27.80;13.13;;;-4.30;99.90;;;;;;5078187;28;20195;-87
2021/01/31 09:19:15;;;;;;;22.70;13.83;;;-4.20;99.90;;;;;;5078208;28;20188;-87
2021/01/31 09:21:49;;;;;;;24.27;14.27;;;-4.10;99.90;;;;;;5078732;28;20177;-88
2021/01/31 09:24:26;;;;;;;20.57;12.50;;;-4.00;99.90;;;;;;5078310;28;20181;-89
2021/01/31 09:26:56;;;;;;;21.67;12.37;;;-3.80;99.90;;;;;;5079528;28;20206;-88
2021/01/31 09:29:29;;;;;;;23.77;13.73;;;-3.80;99.90;;;;;;5079474;28;20188;-89
2021/01/31 09:32:21;;;;;;;26.50;14.17;;;-3.70;99.90;;;;;;5078235;28;20230;-88
2021/01/31 09:34:53;;;;;;;22.70;13.53;;;-3.60;99.90;;;;;;5078218;28;20175;-88
2021/01/31 09:37:30;;;;;;;15.03;8.33;;;-3.60;99.90;;;;;;5080031;28;20248;-87
2021/01/31 09:40:07;;;;;;;18.73;11.70;;;-3.40;99.90;;;;;;5078926;28;20183;-88
2021/01/31 09:42:36;;;;;;;20.33;11.90;;;-3.30;99.90;;;;;;5077985;28;20193;-88
2021/01/31 09:45:27;;;;;;;17.70;11.03;;;-3.30;99.90;;;;;;5078221;28;20175;-88
2021/01/31 09:47:59;;;;;;;14.40;7.90;;;-3.20;99.90;;;;;;5076268;28;20171;-88
2021/01/31 09:50:30;;;;;;;17.23;10.20;;;-3.10;99.90;;;;;;5074866;28;20605;-88
2021/01/31 09:52:58;;;;;;;13.20;8.40;;;-3.00;99.90;;;;;;5075999;28;20174;-88
2021/01/31 09:55:44;;;;;;;18.60;11.63;;;-3.00;99.90;;;;;;5075911;28;20643;-88
2021/01/31 09:58:21;;;;;;;20.50;11.33;;;-2.90;99.90;;;;;;5074610;28;20175;-88
2021/01/31 10:00:52;;;;;;;20.77;12.27;;;-2.90;99.90;;;;;;5074762;28;20181;-88
2021/01/31 10:03:32;;;;;;;18.13;10.90;;;-2.90;99.90;;;;;;5074703;28;20610;-88
2021/01/31 10:06:04;;;;;;;20.40;10.77;;;-2.80;99.90;;;;;;5074594;28;20283;-88
2021/01/31 10:08:32;;;;;;;15.33;10.00;;;-2.90;99.90;;;;;;5075790;28;20171;-88
2021/01/31 10:11:22;;;;;;;15.47;9.10;;;-3.00;99.90;;;;;;5074618;28;20225;-88
2021/01/31 10:13:52;;;;;;;16.33;9.40;;;-3.00;99.90;;;;;;5075677;28;20176;-88
2021/01/31 10:16:27;;;;;;;17.03;10.27;;;-3.10;99.90;;;;;;5074360;28;20617;-88
2021/01/31 10:19:22;;;;;;;18.03;9.93;;;-3.00;99.90;;;;;;5074509;28;20182;-88
2021/01/31 10:22:01;;;;;;;14.93;10.17;;;-3.00;99.90;;;;;;5074586;28;20572;-88
2021/01/31 10:24:34;;;;;;;17.90;10.73;;;-2.80;99.90;;;;;;5074282;28;20171;-89
2021/01/31 10:27:15;;;;;;;17.00;10.67;;;-2.70;99.90;;;;;;5074283;28;20289;-88
2021/01/31 10:29:47;;;;;;;17.37;10.27;;;-2.70;99.90;;;;;;5074173;28;20183;-88
2021/01/31 10:32:40;;;;;;;16.73;10.13;;;-2.60;99.90;;;;;;5074195;28;20175;-88
2021/01/31 10:35:31;;;;;;;14.60;9.03;;;-2.70;99.90;;;;;;5074158;28;20206;-88
2021/01/31 10:38:26;;;;;;;19.07;10.53;;;-2.50;99.90;;;;;;5073904;28;20179;-88
2021/01/31 10:40:58;;;;;;;11.27;7.30;;;-2.40;99.90;;;;;;5073856;28;20198;-88
2021/01/31 10:43:38;;;;;;;10.80;6.93;;;-2.30;99.90;;;;;;5074189;28;20678;-88
2021/01/31 10:46:11;;;;;;;12.73;8.20;;;-2.20;99.90;;;;;;5075261;28;20191;-88
2021/01/31 10:48:44;;;;;;;15.13;8.63;;;-2.10;99.90;;;;;;5074180;28;20177;-88
2021/01/31 10:51:12;;;;;;;14.13;10.03;;;-2.00;99.90;;;;;;5075636;28;20532;-88
2021/01/31 10:53:44;;;;;;;16.60;8.97;;;-1.80;99.90;;;;;;5075065;28;20202;-88
2021/01/31 10:56:17;;;;;;;4.93;3.13;;;-1.80;99.90;;;;;;5075302;28;20230;-88
2021/01/31 10:58:51;;;;;;;13.00;8.90;;;-1.70;99.90;;;;;;5075868;28;20164;-89
2021/01/31 11:01:26;;;;;;;16.20;8.87;;;-1.60;99.90;;;;;;5074715;28;20167;-88
2021/01/31 11:03:57;;;;;;;13.77;8.97;;;-1.40;99.90;;;;;;5074010;28;20197;-88
2021/01/31 11:06:31;;;;;;;14.83;9.53;;;-1.20;99.90;;;;;;5074417;28;20540;-89
2021/01/31 11:09:08;;;;;;;14.43;8.67;;;-0.80;99.90;;;;;;5073802;28;20172;-88
2021/01/31 11:11:42;;;;;;;14.20;8.93;;;-0.90;99.90;;;;;;5073606;28;20250;-88
2021/01/31 11:14:19;;;;;;;12.77;9.70;;;-1.00;99.90;;;;;;5073509;28;20160;-88
2021/01/31 11:16:51;;;;;;;11.93;8.60;;;-1.10;99.90;;;;;;5074473;28;20204;-88
2021/01/31 11:19:26;;;;;;;13.67;8.53;;;-1.10;99.90;;;;;;5073319;28;20272;-88
2021/01/31 11:22:00;;;;;;;13.57;9.00;;;-1.20;99.90;;;;;;5073099;28;20654;-87
2021/01/31 11:24:32;;;;;;;15.70;9.53;;;-1.30;99.90;;;;;;5074533;28;20154;-87
2021/01/31 11:27:07;;;;;;;14.60;9.43;;;-1.30;99.90;;;;;;5074108;28;20295;-88
2021/01/31 11:29:38;;;;;;;14.90;8.33;;;-1.20;99.90;;;;;;5074239;28;20166;-88
2021/01/31 11:32:11;;;;;;;12.80;8.70;;;-1.10;99.90;;;;;;5073365;28;20182;-88
2021/01/31 11:34:47;;;;;;;15.07;6.67;;;-0.90;99.90;;;;;;5072896;28;20203;-88
2021/01/31 11:37:21;;;;;;;11.83;7.40;;;-0.90;99.90;;;;;;5074325;28;20190;-88
2021/01/31 11:39:55;;;;;;;14.50;9.40;;;-0.80;99.90;;;;;;5074047;28;20664;-88
2021/01/31 11:42:29;;;;;;;13.87;9.03;;;-0.70;99.90;;;;;;5072886;28;20206;-88
2021/01/31 11:45:05;;;;;;;12.03;8.33;;;-0.70;99.90;;;;;;5074363;28;20512;-88
2021/01/31 11:47:37;;;;;;;14.43;8.67;;;-0.60;99.90;;;;;;5072584;28;20683;-88
2021/01/31 11:50:11;;;;;;;15.57;9.13;;;-0.40;99.90;;;;;;5073984;28;20169;-89
2021/01/31 11:52:42;;;;;;;21.93;11.03;;;-0.40;99.90;;;;;;5072609;28;20203;-89
2021/01/31 11:55:09;;;;;;;13.73;8.90;;;-0.30;99.90;;;;;;5072872;28;20184;-89
2021/01/31 11:57:39;;;;;;;14.03;8.23;;;-0.20;99.90;;;;;;5072724;28;20552;-89
2021/01/31 12:00:12;;;;;;;12.43;8.50;;;-0.20;99.90;;;;;;5073979;28;20166;-88
2021/01/31 12:02:46;;;;;;;16.00;9.23;;;0.10;99.90;;;;;;5072407;28;20194;-88
2021/01/31 12:05:19;;;;;;;12.10;7.93;;;0.00;99.90;;;;;;5072504;28;20170;-88
2021/01/31 12:07:54;;;;;;;14.23;8.60;;;0.10;99.90;;;;;;5072386;28;20548;-89
2021/01/31 12:10:30;;;;;;;11.30;8.50;;;-0.10;99.90;;;;;;5072270;28;20176;-88
2021/01/31 12:13:07;;;;;;;12.47;8.27;;;0.10;99.90;;;;;;5071920;28;20674;-89
2021/01/31 12:15:36;;;;;;;15.10;9.50;;;0.10;99.90;;;;;;5073614;28;20190;-88
2021/01/31 12:18:05;;;;;;;13.83;8.87;;;0.20;99.90;;;;;;5072065;28;20672;-88
2021/01/31 12:20:35;;;;;;;14.30;8.90;;;0.10;99.90;;;;;;5072047;28;20177;-88
2021/01/31 12:23:08;;;;;;;13.73;10.17;;;0.20;99.90;;;;;;5071991;28;20237;-88
2021/01/31 12:25:41;;;;;;;15.07;9.30;;;0.30;99.90;;;;;;5072176;28;20220;-88
2021/01/31 12:28:12;;;;;;;15.83;9.77;;;0.20;99.90;;;;;;5071932;28;20647;-88
2021/01/31 12:30:47;;;;;;;12.67;8.23;;;0.20;99.90;;;;;;5072322;28;20182;-88
2021/01/31 12:33:21;;;;;;;16.03;10.20;;;0.30;99.90;;;;;;5073480;28;20591;-89
2021/01/31 12:35:54;;;;;;;15.07;9.83;;;0.40;99.90;;;;;;5073418;28;20194;-88
2021/01/31 12:38:28;;;;;;;15.03;10.20;;;0.60;99.90;;;;;;5073183;28;20170;-89
2021/01/31 12:41:00;;;;;;;14.03;10.43;;;0.50;99.90;;;;;;5071981;28;20174;-89
2021/01/31 12:43:33;;;;;;;17.77;10.40;;;0.30;99.90;;;;;;5073156;28;20223;-89
2021/01/31 12:46:10;;;;;;;16.13;11.17;;;0.40;99.90;;;;;;5071805;28;20198;-90
2021/01/31 12:48:47;;;;;;;12.60;9.83;;;0.20;99.90;;;;;;5072296;28;20171;-89
2021/01/31 12:51:19;;;;;;;15.97;11.57;;;0.30;99.90;;;;;;5073382;28;20170;-90
2021/01/31 12:53:51;;;;;;;17.43;11.43;;;0.30;99.90;;;;;;5073051;28;20639;-89
2021/01/31 12:56:26;;;;;;;18.10;11.37;;;0.40;99.90;;;;;;5071801;28;20195;-89
2021/01/31 12:59:03;;;;;;;17.63;11.50;;;0.30;99.90;;;;;;5071896;28;20182;-90
2021/01/31 13:01:40;;;;;;;15.13;9.77;;;0.40;99.90;;;;;;5071906;28;20183;-89
2021/01/31 13:04:15;;;;;;;15.50;10.53;;;0.40;99.90;;;;;;5071728;28;20205;-88
2021/01/31 13:06:49;;;;;;;18.93;11.00;;;0.50;99.90;;;;;;5072132;28;20584;-89
2021/01/31 13:09:21;;;;;;;17.90;11.30;;;0.40;99.90;;;;;;5071888;28;20178;-89
2021/01/31 13:11:54;;;;;;;21.23;12.57;;;0.50;99.90;;;;;;5071754;28;20179;-89
2021/01/31 13:14:29;;;;;;;19.47;12.80;;;0.50;99.90;;;;;;5073189;28;20578;-90
2021/01/31 13:17:06;;;;;;;17.40;12.30;;;0.50;99.90;;;;;;5073070;28;20196;-89
2021/01/31 13:19:44;;;;;;;16.60;12.47;;;0.50;99.90;;;;;;5072912;28;20164;-89
2021/01/31 13:22:17;;;;;;;19.60;12.87;;;0.50;99.90;;;;;;5071951;28;20568;-89
2021/01/31 13:24:53;;;;;;;16.70;11.70;;;0.50;99.90;;;;;;5074744;28;20172;-89
2021/01/31 13:27:26;;;;;;;18.07;12.83;;;0.60;99.90;;;;;;5075750;28;20212;-90